sensor_id;sensor_type;location;lat;lon;timestamp;temperature;humidity
25504;DHT22;13410;52.114;5.718;2023-09-07T00:01:46;26.30;99.90
25504;DHT22;13410;52.114;5.718;2023-09-07T00:04:11;26.20;99.90
25504;DHT22;13410;52.114;5.718;2023-09-07T00:06:39;26.10;99.90
25504;DHT22;13410;52.114;5.718;2023-09-07T00:09:05;26.20;99.90
25504;DHT22;13410;52.114;5.718;2023-09-07T00:11:31;26.50;99.90
25504;DHT22;13410;52.114;5.718;2023-09-07T00:13:57;26.50;99.90
25504;DHT22;13410;52.114;5.718;2023-09-07T00:16:24;26.70;99.90
25504;DHT22;13410;52.114;5.718;2023-09-07T00:18:50;26.80;99.90
25504;DHT22;13410;52.114;5.718;2023-09-07T00:21:15;27.00;99.90
25504;DHT22;13410;52.114;5.718;2023-09-07T00:23:41;26.90;99.90
25504;DHT22;13410;52.114;5.718;2023-09-07T00:26:07;26.80;99.90
25504;DHT22;13410;52.114;5.718;2023-09-07T00:28:33;26.80;99.90
25504;DHT22;13410;52.114;5.718;2023-09-07T00:30:58;26.80;99.90
25504;DHT22;13410;52.114;5.718;2023-09-07T00:33:24;26.80;99.90
25504;DHT22;13410;52.114;5.718;2023-09-07T00:35:50;26.70;99.90
25504;DHT22;13410;52.114;5.718;2023-09-07T00:38:15;26.80;99.90
25504;DHT22;13410;52.114;5.718;2023-09-07T00:40:44;26.50;99.90
25504;DHT22;13410;52.114;5.718;2023-09-07T00:43:10;26.30;99.90
25504;DHT22;13410;52.114;5.718;2023-09-07T00:45:36;26.40;99.90
25504;DHT22;13410;52.114;5.718;2023-09-07T00:48:02;26.70;99.90
25504;DHT22;13410;52.114;5.718;2023-09-07T00:50:28;26.70;99.90
25504;DHT22;13410;52.114;5.718;2023-09-07T00:52:54;26.50;99.90
25504;DHT22;13410;52.114;5.718;2023-09-07T00:55:20;26.50;99.90
25504;DHT22;13410;52.114;5.718;2023-09-07T00:57:46;26.40;99.90
25504;DHT22;13410;52.114;5.718;2023-09-07T01:00:12;26.50;99.90
25504;DHT22;13410;52.114;5.718;2023-09-07T01:02:38;26.50;99.90
25504;DHT22;13410;52.114;5.718;2023-09-07T01:05:04;26.40;99.90
25504;DHT22;13410;52.114;5.718;2023-09-07T01:07:49;26.40;99.90
25504;DHT22;13410;52.114;5.718;2023-09-07T01:10:15;26.50;99.90
25504;DHT22;13410;52.114;5.718;2023-09-07T01:12:41;26.50;99.90
25504;DHT22;13410;52.114;5.718;2023-09-07T01:15:08;26.40;99.90
25504;DHT22;13410;52.114;5.718;2023-09-07T01:17:35;26.50;99.90
25504;DHT22;13410;52.114;5.718;2023-09-07T01:20:04;26.40;99.90
25504;DHT22;13410;52.114;5.718;2023-09-07T01:22:36;26.50;99.90
25504;DHT22;13410;52.114;5.718;2023-09-07T01:25:02;26.50;99.90
25504;DHT22;13410;52.114;5.718;2023-09-07T01:27:28;26.50;99.90
25504;DHT22;13410;52.114;5.718;2023-09-07T01:29:54;26.30;99.90
25504;DHT22;13410;52.114;5.718;2023-09-07T01:32:20;26.10;99.90
25504;DHT22;13410;52.114;5.718;2023-09-07T01:34:45;26.20;99.90
25504;DHT22;13410;52.114;5.718;2023-09-07T01:37:11;25.90;99.90
25504;DHT22;13410;52.114;5.718;2023-09-07T01:39:36;26.00;99.90
25504;DHT22;13410;52.114;5.718;2023-09-07T01:42:02;25.90;99.90
25504;DHT22;13410;52.114;5.718;2023-09-07T01:44:28;25.80;99.90
25504;DHT22;13410;52.114;5.718;2023-09-07T01:46:55;26.30;99.90
25504;DHT22;13410;52.114;5.718;2023-09-07T01:49:20;26.00;99.90
25504;DHT22;13410;52.114;5.718;2023-09-07T01:51:46;26.20;99.90
25504;DHT22;13410;52.114;5.718;2023-09-07T01:54:11;25.90;99.90
25504;DHT22;13410;52.114;5.718;2023-09-07T01:56:37;25.80;99.90
25504;DHT22;13410;52.114;5.718;2023-09-07T01:59:04;25.90;99.90
25504;DHT22;13410;52.114;5.718;2023-09-07T02:01:31;25.70;99.90
25504;DHT22;13410;52.114;5.718;2023-09-07T02:03:58;25.60;99.90
25504;DHT22;13410;52.114;5.718;2023-09-07T02:06:23;25.60;99.90
25504;DHT22;13410;52.114;5.718;2023-09-07T02:08:49;25.90;99.90
25504;DHT22;13410;52.114;5.718;2023-09-07T02:11:15;25.80;99.90
25504;DHT22;13410;52.114;5.718;2023-09-07T02:13:46;25.80;99.90
25504;DHT22;13410;52.114;5.718;2023-09-07T02:16:11;25.90;99.90
25504;DHT22;13410;52.114;5.718;2023-09-07T02:18:37;25.80;99.90
25504;DHT22;13410;52.114;5.718;2023-09-07T02:21:05;25.90;99.90
25504;DHT22;13410;52.114;5.718;2023-09-07T02:23:34;26.00;99.90
25504;DHT22;13410;52.114;5.718;2023-09-07T02:26:00;25.90;99.90
25504;DHT22;13410;52.114;5.718;2023-09-07T02:28:26;25.80;99.90
25504;DHT22;13410;52.114;5.718;2023-09-07T02:30:52;25.70;99.90
25504;DHT22;13410;52.114;5.718;2023-09-07T02:33:18;25.70;99.90
25504;DHT22;13410;52.114;5.718;2023-09-07T02:35:43;25.40;99.90
25504;DHT22;13410;52.114;5.718;2023-09-07T02:38:09;25.50;99.90
25504;DHT22;13410;52.114;5.718;2023-09-07T02:40:47;25.60;99.90
25504;DHT22;13410;52.114;5.718;2023-09-07T02:43:12;25.50;99.90
25504;DHT22;13410;52.114;5.718;2023-09-07T02:45:38;25.50;99.90
25504;DHT22;13410;52.114;5.718;2023-09-07T02:48:05;25.50;99.90
25504;DHT22;13410;52.114;5.718;2023-09-07T02:50:33;25.40;99.90
25504;DHT22;13410;52.114;5.718;2023-09-07T02:52:59;25.40;99.90
25504;DHT22;13410;52.114;5.718;2023-09-07T02:55:27;25.30;99.90
25504;DHT22;13410;52.114;5.718;2023-09-07T02:57:53;25.30;99.90
25504;DHT22;13410;52.114;5.718;2023-09-07T03:00:20;25.50;99.90
25504;DHT22;13410;52.114;5.718;2023-09-07T03:02:46;25.70;99.90
25504;DHT22;13410;52.114;5.718;2023-09-07T03:05:14;25.70;99.90
25504;DHT22;13410;52.114;5.718;2023-09-07T03:07:41;25.70;99.90
25504;DHT22;13410;52.114;5.718;2023-09-07T03:10:07;25.70;99.90
25504;DHT22;13410;52.114;5.718;2023-09-07T03:12:34;25.40;99.90
25504;DHT22;13410;52.114;5.718;2023-09-07T03:14:59;25.30;99.90
25504;DHT22;13410;52.114;5.718;2023-09-07T03:17:29;25.20;99.90
25504;DHT22;13410;52.114;5.718;2023-09-07T03:19:54;25.10;99.90
25504;DHT22;13410;52.114;5.718;2023-09-07T03:22:20;25.00;99.90
25504;DHT22;13410;52.114;5.718;2023-09-07T03:24:45;25.10;99.90
25504;DHT22;13410;52.114;5.718;2023-09-07T03:27:11;25.10;99.90
25504;DHT22;13410;52.114;5.718;2023-09-07T03:29:36;25.20;99.90
25504;DHT22;13410;52.114;5.718;2023-09-07T03:32:02;25.20;99.90
25504;DHT22;13410;52.114;5.718;2023-09-07T03:34:28;25.20;99.90
25504;DHT22;13410;52.114;5.718;2023-09-07T03:36:53;25.40;99.90
25504;DHT22;13410;52.114;5.718;2023-09-07T03:39:19;25.40;99.90
25504;DHT22;13410;52.114;5.718;2023-09-07T03:41:47;25.60;99.90
25504;DHT22;13410;52.114;5.718;2023-09-07T03:44:13;25.50;99.90
25504;DHT22;13410;52.114;5.718;2023-09-07T03:46:38;25.40;99.90
25504;DHT22;13410;52.114;5.718;2023-09-07T03:49:04;25.40;99.90
25504;DHT22;13410;52.114;5.718;2023-09-07T03:51:29;25.20;99.90
25504;DHT22;13410;52.114;5.718;2023-09-07T03:53:55;25.00;99.90
25504;DHT22;13410;52.114;5.718;2023-09-07T03:56:20;25.10;99.90
25504;DHT22;13410;52.114;5.718;2023-09-07T03:58:46;25.10;99.90
25504;DHT22;13410;52.114;5.718;2023-09-07T04:01:15;25.20;99.90
25504;DHT22;13410;52.114;5.718;2023-09-07T04:03:41;25.30;99.90
25504;DHT22;13410;52.114;5.718;2023-09-07T04:06:07;25.50;99.90
25504;DHT22;13410;52.114;5.718;2023-09-07T04:08:32;25.60;99.90
25504;DHT22;13410;52.114;5.718;2023-09-07T04:10:58;25.40;99.90
25504;DHT22;13410;52.114;5.718;2023-09-07T04:13:28;25.60;99.90
25504;DHT22;13410;52.114;5.718;2023-09-07T04:15:53;25.30;99.90
25504;DHT22;13410;52.114;5.718;2023-09-07T04:18:19;25.10;99.90
25504;DHT22;13410;52.114;5.718;2023-09-07T04:20:44;25.30;99.90
25504;DHT22;13410;52.114;5.718;2023-09-07T04:23:10;25.30;99.90
25504;DHT22;13410;52.114;5.718;2023-09-07T04:25:36;25.20;99.90
25504;DHT22;13410;52.114;5.718;2023-09-07T04:28:02;25.30;99.90
25504;DHT22;13410;52.114;5.718;2023-09-07T04:30:27;25.30;99.90
25504;DHT22;13410;52.114;5.718;2023-09-07T04:32:53;25.40;99.90
25504;DHT22;13410;52.114;5.718;2023-09-07T04:35:18;25.20;99.90
25504;DHT22;13410;52.114;5.718;2023-09-07T04:37:44;25.30;99.90
25504;DHT22;13410;52.114;5.718;2023-09-07T04:40:10;25.20;99.90
25504;DHT22;13410;52.114;5.718;2023-09-07T04:42:37;25.20;99.90
25504;DHT22;13410;52.114;5.718;2023-09-07T04:45:05;25.10;99.90
25504;DHT22;13410;52.114;5.718;2023-09-07T04:47:30;25.10;99.90
25504;DHT22;13410;52.114;5.718;2023-09-07T04:49:57;25.10;99.90
25504;DHT22;13410;52.114;5.718;2023-09-07T04:52:22;24.90;99.90
25504;DHT22;13410;52.114;5.718;2023-09-07T04:54:48;24.90;99.90
25504;DHT22;13410;52.114;5.718;2023-09-07T04:57:16;24.90;99.90
25504;DHT22;13410;52.114;5.718;2023-09-07T04:59:43;25.10;99.90
25504;DHT22;13410;52.114;5.718;2023-09-07T05:02:10;25.20;99.90
25504;DHT22;13410;52.114;5.718;2023-09-07T05:04:37;25.10;99.90
25504;DHT22;13410;52.114;5.718;2023-09-07T05:07:02;25.30;99.90
25504;DHT22;13410;52.114;5.718;2023-09-07T05:09:28;25.30;99.90
25504;DHT22;13410;52.114;5.718;2023-09-07T05:11:55;25.30;99.90
25504;DHT22;13410;52.114;5.718;2023-09-07T05:14:25;25.20;99.90
25504;DHT22;13410;52.114;5.718;2023-09-07T05:16:51;25.20;99.90
25504;DHT22;13410;52.114;5.718;2023-09-07T05:19:16;25.60;99.90
25504;DHT22;13410;52.114;5.718;2023-09-07T05:21:42;25.90;99.90
25504;DHT22;13410;52.114;5.718;2023-09-07T05:24:08;26.40;99.90
25504;DHT22;13410;52.114;5.718;2023-09-07T05:26:34;26.60;99.90
25504;DHT22;13410;52.114;5.718;2023-09-07T05:28:59;27.10;99.90
25504;DHT22;13410;52.114;5.718;2023-09-07T05:31:25;27.40;99.90
25504;DHT22;13410;52.114;5.718;2023-09-07T05:33:50;27.40;99.90
25504;DHT22;13410;52.114;5.718;2023-09-07T05:36:17;27.60;99.90
25504;DHT22;13410;52.114;5.718;2023-09-07T05:38:42;27.60;99.90
25504;DHT22;13410;52.114;5.718;2023-09-07T05:41:08;27.10;99.90
25504;DHT22;13410;52.114;5.718;2023-09-07T05:43:34;26.90;99.90
25504;DHT22;13410;52.114;5.718;2023-09-07T05:45:59;26.70;99.90
25504;DHT22;13410;52.114;5.718;2023-09-07T05:48:25;26.30;99.90
25504;DHT22;13410;52.114;5.718;2023-09-07T05:50:51;26.20;99.90
25504;DHT22;13410;52.114;5.718;2023-09-07T05:53:18;26.00;99.90
25504;DHT22;13410;52.114;5.718;2023-09-07T05:55:44;26.00;99.90
25504;DHT22;13410;52.114;5.718;2023-09-07T05:58:09;25.90;99.90
25504;DHT22;13410;52.114;5.718;2023-09-07T06:00:35;25.80;99.90
25504;DHT22;13410;52.114;5.718;2023-09-07T06:03:01;25.70;99.90
25504;DHT22;13410;52.114;5.718;2023-09-07T06:05:27;25.60;99.90
25504;DHT22;13410;52.114;5.718;2023-09-07T06:07:53;25.80;99.90
25504;DHT22;13410;52.114;5.718;2023-09-07T06:10:18;25.80;99.90
25504;DHT22;13410;52.114;5.718;2023-09-07T06:12:44;25.80;99.90
25504;DHT22;13410;52.114;5.718;2023-09-07T06:15:10;25.60;99.90
25504;DHT22;13410;52.114;5.718;2023-09-07T06:17:37;25.50;99.90
25504;DHT22;13410;52.114;5.718;2023-09-07T06:20:03;25.40;99.90
25504;DHT22;13410;52.114;5.718;2023-09-07T06:22:29;25.40;99.90
25504;DHT22;13410;52.114;5.718;2023-09-07T06:24:54;25.40;99.90
25504;DHT22;13410;52.114;5.718;2023-09-07T06:27:20;25.40;99.90
25504;DHT22;13410;52.114;5.718;2023-09-07T06:29:45;25.40;99.90
25504;DHT22;13410;52.114;5.718;2023-09-07T06:32:11;25.30;99.90
25504;DHT22;13410;52.114;5.718;2023-09-07T06:34:37;25.30;99.90
25504;DHT22;13410;52.114;5.718;2023-09-07T06:37:03;25.10;99.90
25504;DHT22;13410;52.114;5.718;2023-09-07T06:39:29;25.20;99.90
25504;DHT22;13410;52.114;5.718;2023-09-07T06:41:54;25.40;99.90
25504;DHT22;13410;52.114;5.718;2023-09-07T06:44:20;25.60;99.90
25504;DHT22;13410;52.114;5.718;2023-09-07T06:46:45;25.60;99.90
25504;DHT22;13410;52.114;5.718;2023-09-07T06:49:11;25.80;99.90
25504;DHT22;13410;52.114;5.718;2023-09-07T06:51:36;25.80;99.90
25504;DHT22;13410;52.114;5.718;2023-09-07T06:54:03;26.00;99.90
25504;DHT22;13410;52.114;5.718;2023-09-07T06:56:29;26.30;99.90
25504;DHT22;13410;52.114;5.718;2023-09-07T06:58:56;26.60;99.90
25504;DHT22;13410;52.114;5.718;2023-09-07T07:01:22;26.90;99.90
25504;DHT22;13410;52.114;5.718;2023-09-07T07:03:47;27.70;99.90
25504;DHT22;13410;52.114;5.718;2023-09-07T07:06:14;28.20;99.90
25504;DHT22;13410;52.114;5.718;2023-09-07T07:08:40;28.90;99.90
25504;DHT22;13410;52.114;5.718;2023-09-07T07:11:05;29.30;99.90
25504;DHT22;13410;52.114;5.718;2023-09-07T07:13:31;29.30;99.90
25504;DHT22;13410;52.114;5.718;2023-09-07T07:15:56;29.50;99.90
25504;DHT22;13410;52.114;5.718;2023-09-07T07:18:23;28.80;99.90
25504;DHT22;13410;52.114;5.718;2023-09-07T07:20:48;28.80;99.90
25504;DHT22;13410;52.114;5.718;2023-09-07T07:23:16;28.80;99.90
25504;DHT22;13410;52.114;5.718;2023-09-07T07:25:41;29.10;99.90
25504;DHT22;13410;52.114;5.718;2023-09-07T07:28:07;29.50;99.90
25504;DHT22;13410;52.114;5.718;2023-09-07T07:30:34;30.10;99.90
25504;DHT22;13410;52.114;5.718;2023-09-07T07:33:00;30.30;99.90
25504;DHT22;13410;52.114;5.718;2023-09-07T07:35:26;30.30;99.90
25504;DHT22;13410;52.114;5.718;2023-09-07T07:37:52;30.90;99.90
25504;DHT22;13410;52.114;5.718;2023-09-07T07:40:17;30.30;99.90
25504;DHT22;13410;52.114;5.718;2023-09-07T07:42:45;30.00;99.90
25504;DHT22;13410;52.114;5.718;2023-09-07T07:45:11;29.80;99.90
25504;DHT22;13410;52.114;5.718;2023-09-07T07:47:39;29.30;99.90
25504;DHT22;13410;52.114;5.718;2023-09-07T07:50:05;29.40;99.90
25504;DHT22;13410;52.114;5.718;2023-09-07T07:52:31;29.30;99.90
25504;DHT22;13410;52.114;5.718;2023-09-07T07:54:56;29.00;99.90
25504;DHT22;13410;52.114;5.718;2023-09-07T07:57:22;28.40;99.90
25504;DHT22;13410;52.114;5.718;2023-09-07T07:59:47;27.70;99.90
25504;DHT22;13410;52.114;5.718;2023-09-07T08:02:13;27.60;99.90
25504;DHT22;13410;52.114;5.718;2023-09-07T08:04:39;27.70;99.90
25504;DHT22;13410;52.114;5.718;2023-09-07T08:07:04;27.80;99.90
25504;DHT22;13410;52.114;5.718;2023-09-07T08:09:30;27.80;99.90
25504;DHT22;13410;52.114;5.718;2023-09-07T08:11:56;28.10;99.90
25504;DHT22;13410;52.114;5.718;2023-09-07T08:14:23;28.00;99.90
25504;DHT22;13410;52.114;5.718;2023-09-07T08:16:52;28.10;99.90
25504;DHT22;13410;52.114;5.718;2023-09-07T08:19:18;28.10;99.90
25504;DHT22;13410;52.114;5.718;2023-09-07T08:21:43;28.20;99.90
25504;DHT22;13410;52.114;5.718;2023-09-07T08:24:10;28.60;99.90
25504;DHT22;13410;52.114;5.718;2023-09-07T08:26:36;29.10;99.90
25504;DHT22;13410;52.114;5.718;2023-09-07T08:29:02;28.90;99.90
25504;DHT22;13410;52.114;5.718;2023-09-07T08:31:34;28.80;99.90
25504;DHT22;13410;52.114;5.718;2023-09-07T08:34:04;29.20;99.90
25504;DHT22;13410;52.114;5.718;2023-09-07T08:36:35;29.10;99.90
25504;DHT22;13410;52.114;5.718;2023-09-07T08:39:06;29.10;99.90
25504;DHT22;13410;52.114;5.718;2023-09-07T08:41:40;29.30;99.90
25504;DHT22;13410;52.114;5.718;2023-09-07T08:44:17;29.00;99.90
25504;DHT22;13410;52.114;5.718;2023-09-07T08:46:43;29.10;99.90
25504;DHT22;13410;52.114;5.718;2023-09-07T08:49:10;29.50;99.90
25504;DHT22;13410;52.114;5.718;2023-09-07T08:51:37;29.60;99.90
25504;DHT22;13410;52.114;5.718;2023-09-07T08:54:07;29.50;99.90
25504;DHT22;13410;52.114;5.718;2023-09-07T08:56:33;29.70;99.90
25504;DHT22;13410;52.114;5.718;2023-09-07T08:58:59;29.80;99.90
25504;DHT22;13410;52.114;5.718;2023-09-07T09:01:26;30.20;99.90
25504;DHT22;13410;52.114;5.718;2023-09-07T09:03:52;30.40;99.90
25504;DHT22;13410;52.114;5.718;2023-09-07T09:06:19;30.40;99.90
25504;DHT22;13410;52.114;5.718;2023-09-07T09:11:14;30.50;99.90
25504;DHT22;13410;52.114;5.718;2023-09-07T09:13:40;30.30;99.90
25504;DHT22;13410;52.114;5.718;2023-09-07T09:16:06;29.90;99.90
25504;DHT22;13410;52.114;5.718;2023-09-07T09:18:32;30.00;99.90
25504;DHT22;13410;52.114;5.718;2023-09-07T09:20:58;30.00;99.90
25504;DHT22;13410;52.114;5.718;2023-09-07T09:23:36;29.80;99.90
25504;DHT22;13410;52.114;5.718;2023-09-07T09:26:03;29.60;99.90
25504;DHT22;13410;52.114;5.718;2023-09-07T09:28:31;29.50;99.90
25504;DHT22;13410;52.114;5.718;2023-09-07T09:31:00;29.90;99.90
25504;DHT22;13410;52.114;5.718;2023-09-07T09:33:26;30.30;99.90
25504;DHT22;13410;52.114;5.718;2023-09-07T09:35:53;30.30;99.90
25504;DHT22;13410;52.114;5.718;2023-09-07T09:38:19;30.00;99.90
25504;DHT22;13410;52.114;5.718;2023-09-07T09:40:45;29.80;99.90
25504;DHT22;13410;52.114;5.718;2023-09-07T09:43:12;29.70;99.90
25504;DHT22;13410;52.114;5.718;2023-09-07T09:45:38;29.70;99.90
25504;DHT22;13410;52.114;5.718;2023-09-07T09:48:05;30.10;99.90
25504;DHT22;13410;52.114;5.718;2023-09-07T09:50:31;30.00;99.90
25504;DHT22;13410;52.114;5.718;2023-09-07T09:52:57;29.90;99.90
25504;DHT22;13410;52.114;5.718;2023-09-07T09:55:24;30.20;99.90
25504;DHT22;13410;52.114;5.718;2023-09-07T09:57:49;30.50;99.90
25504;DHT22;13410;52.114;5.718;2023-09-07T10:00:16;30.50;99.90
25504;DHT22;13410;52.114;5.718;2023-09-07T10:02:43;30.70;99.90
25504;DHT22;13410;52.114;5.718;2023-09-07T10:05:10;30.70;99.90
25504;DHT22;13410;52.114;5.718;2023-09-07T10:07:44;30.80;99.90
25504;DHT22;13410;52.114;5.718;2023-09-07T10:10:12;30.30;99.90
25504;DHT22;13410;52.114;5.718;2023-09-07T10:12:46;30.30;99.90
25504;DHT22;13410;52.114;5.718;2023-09-07T10:15:26;30.50;99.90
25504;DHT22;13410;52.114;5.718;2023-09-07T10:18:15;30.30;99.90
25504;DHT22;13410;52.114;5.718;2023-09-07T10:20:58;30.20;99.90
25504;DHT22;13410;52.114;5.718;2023-09-07T10:23:39;30.40;99.90
25504;DHT22;13410;52.114;5.718;2023-09-07T10:26:13;30.50;99.90
25504;DHT22;13410;52.114;5.718;2023-09-07T10:28:40;30.50;99.90
25504;DHT22;13410;52.114;5.718;2023-09-07T10:31:07;30.70;99.90
25504;DHT22;13410;52.114;5.718;2023-09-07T10:33:36;31.00;99.90
25504;DHT22;13410;52.114;5.718;2023-09-07T10:36:04;31.20;99.90
25504;DHT22;13410;52.114;5.718;2023-09-07T10:38:36;31.20;99.90
25504;DHT22;13410;52.114;5.718;2023-09-07T10:41:03;31.00;99.90
25504;DHT22;13410;52.114;5.718;2023-09-07T10:43:30;30.40;99.90
25504;DHT22;13410;52.114;5.718;2023-09-07T10:45:57;30.50;99.90
25504;DHT22;13410;52.114;5.718;2023-09-07T10:48:24;30.80;99.90
25504;DHT22;13410;52.114;5.718;2023-09-07T10:50:51;31.10;99.90
25504;DHT22;13410;52.114;5.718;2023-09-07T10:53:28;31.10;99.90
25504;DHT22;13410;52.114;5.718;2023-09-07T10:55:56;31.40;99.90
25504;DHT22;13410;52.114;5.718;2023-09-07T10:58:29;31.50;99.90
25504;DHT22;13410;52.114;5.718;2023-09-07T11:00:56;31.60;99.90
25504;DHT22;13410;52.114;5.718;2023-09-07T11:03:22;31.80;99.90
25504;DHT22;13410;52.114;5.718;2023-09-07T11:05:52;32.10;99.90
25504;DHT22;13410;52.114;5.718;2023-09-07T11:08:19;31.90;99.90
25504;DHT22;13410;52.114;5.718;2023-09-07T11:10:45;31.80;99.90
25504;DHT22;13410;52.114;5.718;2023-09-07T11:13:10;31.70;99.90
25504;DHT22;13410;52.114;5.718;2023-09-07T11:15:37;32.00;99.90
25504;DHT22;13410;52.114;5.718;2023-09-07T11:18:07;32.30;99.90
25504;DHT22;13410;52.114;5.718;2023-09-07T11:20:35;32.40;99.90
25504;DHT22;13410;52.114;5.718;2023-09-07T11:23:02;32.20;99.90
25504;DHT22;13410;52.114;5.718;2023-09-07T11:25:37;32.40;99.90
25504;DHT22;13410;52.114;5.718;2023-09-07T11:28:07;32.50;99.90
25504;DHT22;13410;52.114;5.718;2023-09-07T11:30:33;32.50;99.90
25504;DHT22;13410;52.114;5.718;2023-09-07T11:33:09;32.50;99.90
25504;DHT22;13410;52.114;5.718;2023-09-07T11:35:35;32.50;99.90
25504;DHT22;13410;52.114;5.718;2023-09-07T11:38:02;32.40;99.90
25504;DHT22;13410;52.114;5.718;2023-09-07T11:40:29;32.30;99.90
25504;DHT22;13410;52.114;5.718;2023-09-07T11:42:55;32.40;99.90
25504;DHT22;13410;52.114;5.718;2023-09-07T11:45:21;32.50;99.90
25504;DHT22;13410;52.114;5.718;2023-09-07T11:47:46;32.70;99.90
25504;DHT22;13410;52.114;5.718;2023-09-07T11:50:13;32.60;99.90
25504;DHT22;13410;52.114;5.718;2023-09-07T11:52:38;32.40;99.90
25504;DHT22;13410;52.114;5.718;2023-09-07T11:55:04;31.50;99.90
25504;DHT22;13410;52.114;5.718;2023-09-07T11:57:31;31.40;99.90
25504;DHT22;13410;52.114;5.718;2023-09-07T11:59:56;31.40;99.90
25504;DHT22;13410;52.114;5.718;2023-09-07T12:02:22;31.70;99.90
25504;DHT22;13410;52.114;5.718;2023-09-07T12:04:48;31.80;99.90
25504;DHT22;13410;52.114;5.718;2023-09-07T12:07:14;32.20;99.90
25504;DHT22;13410;52.114;5.718;2023-09-07T12:09:40;32.40;99.90
25504;DHT22;13410;52.114;5.718;2023-09-07T12:12:06;31.90;99.90
25504;DHT22;13410;52.114;5.718;2023-09-07T12:14:31;31.60;99.90
25504;DHT22;13410;52.114;5.718;2023-09-07T12:16:57;32.10;99.90
25504;DHT22;13410;52.114;5.718;2023-09-07T12:19:23;32.20;99.90
25504;DHT22;13410;52.114;5.718;2023-09-07T12:21:50;32.30;99.90
25504;DHT22;13410;52.114;5.718;2023-09-07T12:24:16;32.40;99.90
25504;DHT22;13410;52.114;5.718;2023-09-07T12:26:43;32.50;99.90
25504;DHT22;13410;52.114;5.718;2023-09-07T12:29:08;32.50;99.90
25504;DHT22;13410;52.114;5.718;2023-09-07T12:31:35;32.70;99.90
25504;DHT22;13410;52.114;5.718;2023-09-07T12:34:01;32.90;99.90
25504;DHT22;13410;52.114;5.718;2023-09-07T12:36:26;32.90;99.90
25504;DHT22;13410;52.114;5.718;2023-09-07T12:38:55;32.90;99.90
25504;DHT22;13410;52.114;5.718;2023-09-07T12:41:24;32.60;99.90
25504;DHT22;13410;52.114;5.718;2023-09-07T12:43:50;32.10;99.90
25504;DHT22;13410;52.114;5.718;2023-09-07T12:46:15;32.10;99.90
25504;DHT22;13410;52.114;5.718;2023-09-07T12:48:41;32.10;99.90
25504;DHT22;13410;52.114;5.718;2023-09-07T12:51:06;32.20;99.90
25504;DHT22;13410;52.114;5.718;2023-09-07T12:53:32;31.90;99.90
25504;DHT22;13410;52.114;5.718;2023-09-07T12:55:59;31.70;99.90
25504;DHT22;13410;52.114;5.718;2023-09-07T12:58:26;31.70;99.90
25504;DHT22;13410;52.114;5.718;2023-09-07T13:00:52;32.10;99.90
25504;DHT22;13410;52.114;5.718;2023-09-07T13:03:17;32.30;99.90
25504;DHT22;13410;52.114;5.718;2023-09-07T13:05:44;32.50;99.90
25504;DHT22;13410;52.114;5.718;2023-09-07T13:08:10;32.30;99.90
25504;DHT22;13410;52.114;5.718;2023-09-07T13:10:35;32.10;99.90
25504;DHT22;13410;52.114;5.718;2023-09-07T13:13:01;32.30;99.90
25504;DHT22;13410;52.114;5.718;2023-09-07T13:15:26;32.20;99.90
25504;DHT22;13410;52.114;5.718;2023-09-07T13:17:52;32.30;99.90
25504;DHT22;13410;52.114;5.718;2023-09-07T13:20:17;32.40;99.90
25504;DHT22;13410;52.114;5.718;2023-09-07T13:22:46;32.20;99.90
25504;DHT22;13410;52.114;5.718;2023-09-07T13:25:12;32.10;99.90
25504;DHT22;13410;52.114;5.718;2023-09-07T13:27:37;31.90;99.90
25504;DHT22;13410;52.114;5.718;2023-09-07T13:30:04;32.40;99.90
25504;DHT22;13410;52.114;5.718;2023-09-07T13:32:31;32.70;99.90
25504;DHT22;13410;52.114;5.718;2023-09-07T13:34:58;32.60;99.90
25504;DHT22;13410;52.114;5.718;2023-09-07T13:37:23;32.20;99.90
25504;DHT22;13410;52.114;5.718;2023-09-07T13:39:49;32.40;99.90
25504;DHT22;13410;52.114;5.718;2023-09-07T13:42:14;32.50;99.90
25504;DHT22;13410;52.114;5.718;2023-09-07T13:44:40;32.60;99.90
25504;DHT22;13410;52.114;5.718;2023-09-07T13:47:06;32.50;99.90
25504;DHT22;13410;52.114;5.718;2023-09-07T13:49:33;32.20;99.90
25504;DHT22;13410;52.114;5.718;2023-09-07T13:51:59;32.00;99.90
25504;DHT22;13410;52.114;5.718;2023-09-07T13:54:25;32.50;99.90
25504;DHT22;13410;52.114;5.718;2023-09-07T13:56:50;32.10;99.90
25504;DHT22;13410;52.114;5.718;2023-09-07T13:59:16;32.10;99.90
25504;DHT22;13410;52.114;5.718;2023-09-07T14:01:42;32.20;99.90
25504;DHT22;13410;52.114;5.718;2023-09-07T14:04:08;32.30;99.90
25504;DHT22;13410;52.114;5.718;2023-09-07T14:06:34;32.50;99.90
25504;DHT22;13410;52.114;5.718;2023-09-07T14:09:00;32.30;99.90
25504;DHT22;13410;52.114;5.718;2023-09-07T14:11:25;32.20;99.90
25504;DHT22;13410;52.114;5.718;2023-09-07T14:13:52;32.30;99.90
25504;DHT22;13410;52.114;5.718;2023-09-07T14:16:20;32.60;99.90
25504;DHT22;13410;52.114;5.718;2023-09-07T14:18:46;32.80;99.90
25504;DHT22;13410;52.114;5.718;2023-09-07T14:21:16;32.70;99.90
25504;DHT22;13410;52.114;5.718;2023-09-07T14:23:43;32.60;99.90
25504;DHT22;13410;52.114;5.718;2023-09-07T14:26:10;32.80;99.90
25504;DHT22;13410;52.114;5.718;2023-09-07T14:28:36;32.70;99.90
25504;DHT22;13410;52.114;5.718;2023-09-07T14:31:03;32.90;99.90
25504;DHT22;13410;52.114;5.718;2023-09-07T14:33:31;33.00;99.90
25504;DHT22;13410;52.114;5.718;2023-09-07T14:35:58;33.00;99.90
25504;DHT22;13410;52.114;5.718;2023-09-07T14:38:23;33.10;99.90
25504;DHT22;13410;52.114;5.718;2023-09-07T14:40:49;33.10;99.90
25504;DHT22;13410;52.114;5.718;2023-09-07T14:43:17;33.10;99.90
25504;DHT22;13410;52.114;5.718;2023-09-07T14:45:43;33.40;99.90
25504;DHT22;13410;52.114;5.718;2023-09-07T14:48:09;33.00;99.90
25504;DHT22;13410;52.114;5.718;2023-09-07T14:50:34;33.20;99.90
25504;DHT22;13410;52.114;5.718;2023-09-07T14:53:00;33.20;99.90
25504;DHT22;13410;52.114;5.718;2023-09-07T14:55:25;33.20;99.90
25504;DHT22;13410;52.114;5.718;2023-09-07T14:57:51;33.00;99.90
25504;DHT22;13410;52.114;5.718;2023-09-07T15:00:17;33.40;99.90
25504;DHT22;13410;52.114;5.718;2023-09-07T15:02:42;33.20;99.90
25504;DHT22;13410;52.114;5.718;2023-09-07T15:05:08;33.10;99.90
25504;DHT22;13410;52.114;5.718;2023-09-07T15:07:33;32.80;99.90
25504;DHT22;13410;52.114;5.718;2023-09-07T15:09:59;32.50;99.90
25504;DHT22;13410;52.114;5.718;2023-09-07T15:12:25;32.60;99.90
25504;DHT22;13410;52.114;5.718;2023-09-07T15:14:50;32.90;99.90
25504;DHT22;13410;52.114;5.718;2023-09-07T15:17:16;33.10;99.90
25504;DHT22;13410;52.114;5.718;2023-09-07T15:19:42;33.10;99.90
25504;DHT22;13410;52.114;5.718;2023-09-07T15:22:08;33.00;99.90
25504;DHT22;13410;52.114;5.718;2023-09-07T15:24:33;33.00;99.90
25504;DHT22;13410;52.114;5.718;2023-09-07T15:27:09;32.80;99.90
25504;DHT22;13410;52.114;5.718;2023-09-07T15:29:36;32.60;99.90